Amity, Georgia
Current Conditions -  °F | °C
As of 9:55 PM on Friday 21 Nov 2014 (Local Time) from KHQU Reporting Station
Clear Clear  
Wind Chill:   Ceiling: Unl
Heat Index:   Visibility: 10mi
Dew Point:   Wind: 0mph
Humidity: 94%   Direction: NA
Pressure: 30.47"   Gusts: NA
Location:  33.7816°N, 82.4511°W
Report Text: KHQU 220255Z AUTO 00000KT 10SM CLR 04/03 A3047 RMK AO1 T00350026
Loading
Personal Weather Stations






























Interactive Weather Map New forecast layout! Learn more

10-Day Weather Forecast

Advertisements
Track Severe Weather on mobile